sensor_id;sensor_type;location;lat;lon;timestamp;P1;durP1;ratioP1;P2;durP2;ratioP2
45650;SDS011;31365;48.858;8.530;2023-02-22T00:02:11;4.47;;;3.70;;
45650;SDS011;31365;48.858;8.530;2023-02-22T00:04:51;5.33;;;4.30;;
45650;SDS011;31365;48.858;8.530;2023-02-22T00:07:20;5.27;;;3.63;;
45650;SDS011;31365;48.858;8.530;2023-02-22T00:09:49;4.63;;;3.50;;
45650;SDS011;31365;48.858;8.530;2023-02-22T00:12:17;3.90;;;3.10;;
45650;SDS011;31365;48.858;8.530;2023-02-22T00:14:46;4.80;;;3.40;;
45650;SDS011;31365;48.858;8.530;2023-02-22T00:17:17;4.37;;;3.10;;
45650;SDS011;31365;48.858;8.530;2023-02-22T00:19:47;2.80;;;2.47;;
45650;SDS011;31365;48.858;8.530;2023-02-22T00:22:16;3.57;;;2.47;;
45650;SDS011;31365;48.858;8.530;2023-02-22T00:24:45;4.13;;;3.70;;
45650;SDS011;31365;48.858;8.530;2023-02-22T00:27:16;5.40;;;2.90;;
45650;SDS011;31365;48.858;8.530;2023-02-22T00:29:44;6.00;;;3.03;;
45650;SDS011;31365;48.858;8.530;2023-02-22T00:32:13;4.30;;;2.53;;
45650;SDS011;31365;48.858;8.530;2023-02-22T00:34:43;3.63;;;2.43;;
45650;SDS011;31365;48.858;8.530;2023-02-22T00:37:13;2.73;;;2.47;;
45650;SDS011;31365;48.858;8.530;2023-02-22T00:39:41;5.27;;;2.63;;
45650;SDS011;31365;48.858;8.530;2023-02-22T00:42:14;3.93;;;2.90;;
45650;SDS011;31365;48.858;8.530;2023-02-22T00:44:44;4.23;;;2.10;;
45650;SDS011;31365;48.858;8.530;2023-02-22T00:47:12;3.53;;;2.57;;
45650;SDS011;31365;48.858;8.530;2023-02-22T00:49:40;4.60;;;2.60;;
45650;SDS011;31365;48.858;8.530;2023-02-22T00:52:10;4.43;;;2.40;;
45650;SDS011;31365;48.858;8.530;2023-02-22T00:54:38;4.27;;;2.73;;
45650;SDS011;31365;48.858;8.530;2023-02-22T00:57:07;6.47;;;2.63;;
45650;SDS011;31365;48.858;8.530;2023-02-22T00:59:36;3.77;;;2.77;;
45650;SDS011;31365;48.858;8.530;2023-02-22T01:02:05;4.67;;;2.53;;
45650;SDS011;31365;48.858;8.530;2023-02-22T01:04:36;3.17;;;2.30;;
45650;SDS011;31365;48.858;8.530;2023-02-22T01:07:04;6.07;;;2.90;;
45650;SDS011;31365;48.858;8.530;2023-02-22T01:09:34;6.63;;;3.00;;
45650;SDS011;31365;48.858;8.530;2023-02-22T01:12:06;3.57;;;2.90;;
45650;SDS011;31365;48.858;8.530;2023-02-22T01:14:34;6.00;;;2.87;;
45650;SDS011;31365;48.858;8.530;2023-02-22T01:17:03;3.50;;;2.80;;
45650;SDS011;31365;48.858;8.530;2023-02-22T01:19:32;3.70;;;2.87;;
45650;SDS011;31365;48.858;8.530;2023-02-22T01:22:00;4.50;;;2.70;;
45650;SDS011;31365;48.858;8.530;2023-02-22T01:24:30;3.23;;;2.47;;
45650;SDS011;31365;48.858;8.530;2023-02-22T01:27:00;3.20;;;2.50;;
45650;SDS011;31365;48.858;8.530;2023-02-22T01:29:30;3.03;;;2.23;;
45650;SDS011;31365;48.858;8.530;2023-02-22T01:31:58;3.73;;;2.63;;
45650;SDS011;31365;48.858;8.530;2023-02-22T01:34:27;2.83;;;2.53;;
45650;SDS011;31365;48.858;8.530;2023-02-22T01:36:55;5.10;;;2.70;;
45650;SDS011;31365;48.858;8.530;2023-02-22T01:39:24;3.03;;;2.30;;
45650;SDS011;31365;48.858;8.530;2023-02-22T01:41:52;2.83;;;2.63;;
45650;SDS011;31365;48.858;8.530;2023-02-22T01:44:25;4.40;;;2.50;;
45650;SDS011;31365;48.858;8.530;2023-02-22T01:46:58;3.77;;;2.93;;
45650;SDS011;31365;48.858;8.530;2023-02-22T01:49:28;4.17;;;2.87;;
45650;SDS011;31365;48.858;8.530;2023-02-22T01:52:04;4.10;;;2.40;;
45650;SDS011;31365;48.858;8.530;2023-02-22T01:54:40;4.93;;;2.57;;
45650;SDS011;31365;48.858;8.530;2023-02-22T01:57:14;4.30;;;2.60;;
45650;SDS011;31365;48.858;8.530;2023-02-22T01:59:51;2.83;;;2.53;;
45650;SDS011;31365;48.858;8.530;2023-02-22T02:02:25;4.63;;;2.90;;
45650;SDS011;31365;48.858;8.530;2023-02-22T02:04:55;4.27;;;2.77;;
45650;SDS011;31365;48.858;8.530;2023-02-22T02:07:25;2.87;;;2.50;;
45650;SDS011;31365;48.858;8.530;2023-02-22T02:09:56;5.30;;;2.40;;
45650;SDS011;31365;48.858;8.530;2023-02-22T02:12:27;3.47;;;2.37;;
45650;SDS011;31365;48.858;8.530;2023-02-22T02:15:16;2.47;;;2.10;;
45650;SDS011;31365;48.858;8.530;2023-02-22T02:17:52;2.97;;;2.63;;
45650;SDS011;31365;48.858;8.530;2023-02-22T02:20:26;3.17;;;2.40;;
45650;SDS011;31365;48.858;8.530;2023-02-22T02:23:04;4.63;;;2.40;;
45650;SDS011;31365;48.858;8.530;2023-02-22T02:25:57;6.90;;;2.60;;
45650;SDS011;31365;48.858;8.530;2023-02-22T02:29:06;3.63;;;2.60;;
45650;SDS011;31365;48.858;8.530;2023-02-22T02:35:11;4.47;;;2.40;;
45650;SDS011;31365;48.858;8.530;2023-02-22T02:37:51;4.83;;;2.83;;
45650;SDS011;31365;48.858;8.530;2023-02-22T02:40:45;2.80;;;2.40;;
45650;SDS011;31365;48.858;8.530;2023-02-22T02:43:24;7.20;;;2.80;;
45650;SDS011;31365;48.858;8.530;2023-02-22T02:46:02;3.70;;;2.40;;
45650;SDS011;31365;48.858;8.530;2023-02-22T02:48:39;4.57;;;2.30;;
45650;SDS011;31365;48.858;8.530;2023-02-22T02:51:11;3.60;;;2.40;;
45650;SDS011;31365;48.858;8.530;2023-02-22T02:53:44;2.40;;;2.20;;
45650;SDS011;31365;48.858;8.530;2023-02-22T02:56:17;3.30;;;2.60;;
45650;SDS011;31365;48.858;8.530;2023-02-22T02:58:49;3.10;;;2.23;;
45650;SDS011;31365;48.858;8.530;2023-02-22T03:01:26;1.90;;;1.80;;
45650;SDS011;31365;48.858;8.530;2023-02-22T03:04:21;4.73;;;1.70;;
45650;SDS011;31365;48.858;8.530;2023-02-22T03:10:19;4.40;;;2.13;;
45650;SDS011;31365;48.858;8.530;2023-02-22T03:13:08;2.60;;;1.97;;
45650;SDS011;31365;48.858;8.530;2023-02-22T03:15:49;2.63;;;1.83;;
45650;SDS011;31365;48.858;8.530;2023-02-22T03:18:33;2.63;;;1.77;;
45650;SDS011;31365;48.858;8.530;2023-02-22T03:21:21;1.40;;;1.30;;
45650;SDS011;31365;48.858;8.530;2023-02-22T03:24:00;2.80;;;1.60;;
45650;SDS011;31365;48.858;8.530;2023-02-22T03:26:37;2.77;;;1.57;;
45650;SDS011;31365;48.858;8.530;2023-02-22T03:29:29;3.43;;;1.47;;
45650;SDS011;31365;48.858;8.530;2023-02-22T03:32:04;3.03;;;1.60;;
45650;SDS011;31365;48.858;8.530;2023-02-22T03:34:41;1.30;;;1.20;;
45650;SDS011;31365;48.858;8.530;2023-02-22T03:37:15;4.37;;;1.53;;
45650;SDS011;31365;48.858;8.530;2023-02-22T03:39:50;1.40;;;1.30;;
45650;SDS011;31365;48.858;8.530;2023-02-22T03:42:22;5.07;;;1.50;;
45650;SDS011;31365;48.858;8.530;2023-02-22T03:44:57;1.50;;;1.30;;
45650;SDS011;31365;48.858;8.530;2023-02-22T03:47:33;2.20;;;1.57;;
45650;SDS011;31365;48.858;8.530;2023-02-22T03:50:08;1.27;;;1.10;;
45650;SDS011;31365;48.858;8.530;2023-02-22T03:52:43;1.50;;;1.40;;
45650;SDS011;31365;48.858;8.530;2023-02-22T03:55:22;3.07;;;1.60;;
45650;SDS011;31365;48.858;8.530;2023-02-22T03:58:12;2.57;;;1.30;;
45650;SDS011;31365;48.858;8.530;2023-02-22T04:00:43;2.77;;;1.23;;
45650;SDS011;31365;48.858;8.530;2023-02-22T04:03:12;1.37;;;1.03;;
45650;SDS011;31365;48.858;8.530;2023-02-22T04:05:40;2.20;;;1.40;;
45650;SDS011;31365;48.858;8.530;2023-02-22T04:08:10;2.67;;;1.20;;
45650;SDS011;31365;48.858;8.530;2023-02-22T04:10:41;3.67;;;1.33;;
45650;SDS011;31365;48.858;8.530;2023-02-22T04:13:10;2.43;;;1.30;;
45650;SDS011;31365;48.858;8.530;2023-02-22T04:15:44;2.90;;;1.33;;
45650;SDS011;31365;48.858;8.530;2023-02-22T04:18:13;2.53;;;1.17;;
45650;SDS011;31365;48.858;8.530;2023-02-22T04:20:44;2.53;;;1.40;;
45650;SDS011;31365;48.858;8.530;2023-02-22T04:23:23;2.30;;;1.37;;
45650;SDS011;31365;48.858;8.530;2023-02-22T04:25:53;1.97;;;1.40;;
45650;SDS011;31365;48.858;8.530;2023-02-22T04:28:22;5.57;;;1.53;;
45650;SDS011;31365;48.858;8.530;2023-02-22T04:31:12;1.30;;;1.20;;
45650;SDS011;31365;48.858;8.530;2023-02-22T04:34:01;2.37;;;1.27;;
45650;SDS011;31365;48.858;8.530;2023-02-22T04:36:33;1.40;;;1.20;;
45650;SDS011;31365;48.858;8.530;2023-02-22T04:39:03;2.77;;;1.40;;
45650;SDS011;31365;48.858;8.530;2023-02-22T04:41:32;1.37;;;0.83;;
45650;SDS011;31365;48.858;8.530;2023-02-22T04:44:01;1.00;;;0.90;;
45650;SDS011;31365;48.858;8.530;2023-02-22T04:46:31;2.63;;;1.50;;
45650;SDS011;31365;48.858;8.530;2023-02-22T04:49:00;3.17;;;1.10;;
45650;SDS011;31365;48.858;8.530;2023-02-22T04:51:31;2.20;;;1.30;;
45650;SDS011;31365;48.858;8.530;2023-02-22T04:54:06;1.53;;;1.40;;
45650;SDS011;31365;48.858;8.530;2023-02-22T04:56:38;6.57;;;1.73;;
45650;SDS011;31365;48.858;8.530;2023-02-22T04:59:07;2.87;;;1.50;;
45650;SDS011;31365;48.858;8.530;2023-02-22T05:01:37;1.83;;;1.70;;
45650;SDS011;31365;48.858;8.530;2023-02-22T05:04:06;3.57;;;2.10;;
45650;SDS011;31365;48.858;8.530;2023-02-22T05:06:35;3.57;;;2.07;;
45650;SDS011;31365;48.858;8.530;2023-02-22T05:09:03;4.70;;;1.50;;
45650;SDS011;31365;48.858;8.530;2023-02-22T05:11:33;2.97;;;1.90;;
45650;SDS011;31365;48.858;8.530;2023-02-22T05:14:04;5.30;;;2.10;;
45650;SDS011;31365;48.858;8.530;2023-02-22T05:16:33;2.60;;;1.63;;
45650;SDS011;31365;48.858;8.530;2023-02-22T05:19:01;4.23;;;1.80;;
45650;SDS011;31365;48.858;8.530;2023-02-22T05:21:31;2.30;;;2.00;;
45650;SDS011;31365;48.858;8.530;2023-02-22T05:24:00;3.20;;;1.83;;
45650;SDS011;31365;48.858;8.530;2023-02-22T05:26:32;15.40;;;2.80;;
45650;SDS011;31365;48.858;8.530;2023-02-22T05:29:01;4.63;;;1.73;;
45650;SDS011;31365;48.858;8.530;2023-02-22T05:31:30;4.77;;;1.80;;
45650;SDS011;31365;48.858;8.530;2023-02-22T05:33:59;4.20;;;3.60;;
45650;SDS011;31365;48.858;8.530;2023-02-22T05:36:46;14.53;;;8.20;;
45650;SDS011;31365;48.858;8.530;2023-02-22T05:39:14;13.23;;;9.00;;
45650;SDS011;31365;48.858;8.530;2023-02-22T05:41:44;13.63;;;9.93;;
45650;SDS011;31365;48.858;8.530;2023-02-22T05:44:13;13.93;;;9.80;;
45650;SDS011;31365;48.858;8.530;2023-02-22T05:46:41;14.17;;;9.47;;
45650;SDS011;31365;48.858;8.530;2023-02-22T05:49:31;12.77;;;7.70;;
45650;SDS011;31365;48.858;8.530;2023-02-22T05:52:00;13.63;;;7.90;;
45650;SDS011;31365;48.858;8.530;2023-02-22T05:54:29;9.87;;;7.17;;
45650;SDS011;31365;48.858;8.530;2023-02-22T05:56:59;9.30;;;6.43;;
45650;SDS011;31365;48.858;8.530;2023-02-22T05:59:28;8.80;;;6.07;;
45650;SDS011;31365;48.858;8.530;2023-02-22T06:01:56;8.00;;;5.83;;
45650;SDS011;31365;48.858;8.530;2023-02-22T06:04:24;9.50;;;5.80;;
45650;SDS011;31365;48.858;8.530;2023-02-22T06:06:53;8.33;;;4.73;;
45650;SDS011;31365;48.858;8.530;2023-02-22T06:09:22;9.13;;;5.23;;
45650;SDS011;31365;48.858;8.530;2023-02-22T06:11:50;10.87;;;6.93;;
45650;SDS011;31365;48.858;8.530;2023-02-22T06:14:23;12.37;;;8.63;;
45650;SDS011;31365;48.858;8.530;2023-02-22T06:16:52;15.33;;;10.80;;
45650;SDS011;31365;48.858;8.530;2023-02-22T06:19:21;21.83;;;12.63;;
45650;SDS011;31365;48.858;8.530;2023-02-22T06:22:14;16.13;;;12.37;;
45650;SDS011;31365;48.858;8.530;2023-02-22T06:24:43;12.33;;;8.27;;
45650;SDS011;31365;48.858;8.530;2023-02-22T06:27:12;11.07;;;8.00;;
45650;SDS011;31365;48.858;8.530;2023-02-22T06:29:45;16.17;;;10.20;;
45650;SDS011;31365;48.858;8.530;2023-02-22T06:32:17;12.00;;;8.20;;
45650;SDS011;31365;48.858;8.530;2023-02-22T06:34:46;10.30;;;5.40;;
45650;SDS011;31365;48.858;8.530;2023-02-22T06:37:14;6.20;;;4.23;;
45650;SDS011;31365;48.858;8.530;2023-02-22T06:39:43;3.20;;;2.53;;
45650;SDS011;31365;48.858;8.530;2023-02-22T06:42:14;11.17;;;4.37;;
45650;SDS011;31365;48.858;8.530;2023-02-22T06:44:44;4.33;;;2.50;;
45650;SDS011;31365;48.858;8.530;2023-02-22T06:47:36;6.60;;;3.70;;
45650;SDS011;31365;48.858;8.530;2023-02-22T06:50:07;3.77;;;2.93;;
45650;SDS011;31365;48.858;8.530;2023-02-22T06:52:51;6.30;;;2.90;;
45650;SDS011;31365;48.858;8.530;2023-02-22T06:55:21;7.67;;;4.33;;
45650;SDS011;31365;48.858;8.530;2023-02-22T06:57:53;7.93;;;5.70;;
45650;SDS011;31365;48.858;8.530;2023-02-22T07:00:23;4.50;;;3.50;;
45650;SDS011;31365;48.858;8.530;2023-02-22T07:02:55;4.97;;;3.60;;
45650;SDS011;31365;48.858;8.530;2023-02-22T07:05:26;8.07;;;4.67;;
45650;SDS011;31365;48.858;8.530;2023-02-22T07:08:03;12.20;;;6.17;;
45650;SDS011;31365;48.858;8.530;2023-02-22T07:11:15;14.17;;;6.73;;
45650;SDS011;31365;48.858;8.530;2023-02-22T07:13:44;7.17;;;5.87;;
45650;SDS011;31365;48.858;8.530;2023-02-22T07:16:16;8.10;;;6.40;;
45650;SDS011;31365;48.858;8.530;2023-02-22T07:18:44;9.47;;;4.53;;
45650;SDS011;31365;48.858;8.530;2023-02-22T07:21:13;6.17;;;4.00;;
45650;SDS011;31365;48.858;8.530;2023-02-22T07:23:48;10.70;;;4.63;;
45650;SDS011;31365;48.858;8.530;2023-02-22T07:26:19;5.73;;;3.73;;
45650;SDS011;31365;48.858;8.530;2023-02-22T07:28:49;6.77;;;3.70;;
45650;SDS011;31365;48.858;8.530;2023-02-22T07:31:19;12.20;;;4.30;;
45650;SDS011;31365;48.858;8.530;2023-02-22T07:33:48;4.70;;;2.40;;
45650;SDS011;31365;48.858;8.530;2023-02-22T07:36:16;7.20;;;4.23;;
45650;SDS011;31365;48.858;8.530;2023-02-22T07:38:45;10.10;;;4.33;;
45650;SDS011;31365;48.858;8.530;2023-02-22T07:41:14;6.93;;;2.90;;
45650;SDS011;31365;48.858;8.530;2023-02-22T07:43:43;8.77;;;3.27;;
45650;SDS011;31365;48.858;8.530;2023-02-22T07:46:11;11.53;;;3.07;;
45650;SDS011;31365;48.858;8.530;2023-02-22T07:48:41;10.10;;;3.50;;
45650;SDS011;31365;48.858;8.530;2023-02-22T07:51:13;19.63;;;5.03;;
45650;SDS011;31365;48.858;8.530;2023-02-22T07:53:43;13.07;;;9.60;;
45650;SDS011;31365;48.858;8.530;2023-02-22T07:56:11;15.07;;;8.20;;
45650;SDS011;31365;48.858;8.530;2023-02-22T07:58:40;9.03;;;5.03;;
45650;SDS011;31365;48.858;8.530;2023-02-22T08:01:08;10.33;;;5.10;;
45650;SDS011;31365;48.858;8.530;2023-02-22T08:03:57;4.90;;;3.90;;
45650;SDS011;31365;48.858;8.530;2023-02-22T08:06:25;3.43;;;2.70;;
45650;SDS011;31365;48.858;8.530;2023-02-22T08:08:54;8.70;;;2.93;;
45650;SDS011;31365;48.858;8.530;2023-02-22T08:11:23;4.53;;;3.40;;
45650;SDS011;31365;48.858;8.530;2023-02-22T08:13:53;13.97;;;11.40;;
45650;SDS011;31365;48.858;8.530;2023-02-22T08:16:23;8.00;;;5.50;;
45650;SDS011;31365;48.858;8.530;2023-02-22T08:18:54;5.13;;;3.60;;
45650;SDS011;31365;48.858;8.530;2023-02-22T08:21:25;12.13;;;4.93;;
45650;SDS011;31365;48.858;8.530;2023-02-22T08:23:53;13.13;;;4.67;;
45650;SDS011;31365;48.858;8.530;2023-02-22T08:26:22;7.63;;;3.37;;
45650;SDS011;31365;48.858;8.530;2023-02-22T08:28:51;8.40;;;3.50;;
45650;SDS011;31365;48.858;8.530;2023-02-22T08:31:19;10.90;;;3.63;;
45650;SDS011;31365;48.858;8.530;2023-02-22T08:33:48;6.90;;;4.47;;
45650;SDS011;31365;48.858;8.530;2023-02-22T08:36:18;5.70;;;4.20;;
45650;SDS011;31365;48.858;8.530;2023-02-22T08:38:47;11.00;;;4.30;;
45650;SDS011;31365;48.858;8.530;2023-02-22T08:41:16;8.40;;;4.10;;
45650;SDS011;31365;48.858;8.530;2023-02-22T08:43:45;7.40;;;4.07;;
45650;SDS011;31365;48.858;8.530;2023-02-22T08:46:31;6.53;;;3.60;;
45650;SDS011;31365;48.858;8.530;2023-02-22T08:49:39;11.27;;;4.10;;
45650;SDS011;31365;48.858;8.530;2023-02-22T08:52:10;6.40;;;3.40;;
45650;SDS011;31365;48.858;8.530;2023-02-22T08:54:39;6.07;;;3.20;;
45650;SDS011;31365;48.858;8.530;2023-02-22T08:57:08;8.40;;;3.90;;
45650;SDS011;31365;48.858;8.530;2023-02-22T08:59:36;8.33;;;3.13;;
45650;SDS011;31365;48.858;8.530;2023-02-22T09:02:07;7.63;;;3.10;;
45650;SDS011;31365;48.858;8.530;2023-02-22T09:05:05;8.77;;;3.30;;
45650;SDS011;31365;48.858;8.530;2023-02-22T09:07:37;7.57;;;2.93;;
45650;SDS011;31365;48.858;8.530;2023-02-22T09:10:10;6.50;;;3.30;;
45650;SDS011;31365;48.858;8.530;2023-02-22T09:12:42;5.80;;;2.80;;
45650;SDS011;31365;48.858;8.530;2023-02-22T09:15:11;45.13;;;6.30;;
45650;SDS011;31365;48.858;8.530;2023-02-22T09:17:44;7.13;;;3.00;;
45650;SDS011;31365;48.858;8.530;2023-02-22T09:20:31;6.00;;;2.80;;
45650;SDS011;31365;48.858;8.530;2023-02-22T09:23:05;4.57;;;3.07;;
45650;SDS011;31365;48.858;8.530;2023-02-22T09:25:37;7.23;;;2.73;;
45650;SDS011;31365;48.858;8.530;2023-02-22T09:28:29;5.27;;;2.50;;
45650;SDS011;31365;48.858;8.530;2023-02-22T09:30:58;6.30;;;3.47;;
45650;SDS011;31365;48.858;8.530;2023-02-22T09:33:26;10.87;;;4.70;;
45650;SDS011;31365;48.858;8.530;2023-02-22T09:35:55;8.03;;;3.67;;
45650;SDS011;31365;48.858;8.530;2023-02-22T09:38:27;4.53;;;3.50;;
45650;SDS011;31365;48.858;8.530;2023-02-22T09:41:02;8.43;;;3.97;;
45650;SDS011;31365;48.858;8.530;2023-02-22T09:43:43;3.63;;;3.10;;
45650;SDS011;31365;48.858;8.530;2023-02-22T09:46:39;7.63;;;3.57;;
45650;SDS011;31365;48.858;8.530;2023-02-22T09:49:18;4.90;;;3.13;;
45650;SDS011;31365;48.858;8.530;2023-02-22T09:51:54;3.63;;;2.93;;
45650;SDS011;31365;48.858;8.530;2023-02-22T09:54:32;5.13;;;3.20;;
45650;SDS011;31365;48.858;8.530;2023-02-22T09:57:09;8.63;;;3.40;;
45650;SDS011;31365;48.858;8.530;2023-02-22T10:00:11;6.43;;;3.57;;
45650;SDS011;31365;48.858;8.530;2023-02-22T10:03:13;4.83;;;3.10;;
45650;SDS011;31365;48.858;8.530;2023-02-22T10:05:51;5.40;;;3.20;;
45650;SDS011;31365;48.858;8.530;2023-02-22T10:08:31;4.57;;;3.23;;
45650;SDS011;31365;48.858;8.530;2023-02-22T10:11:25;4.23;;;3.50;;
45650;SDS011;31365;48.858;8.530;2023-02-22T10:14:19;3.50;;;3.00;;
45650;SDS011;31365;48.858;8.530;2023-02-22T10:17:10;5.10;;;3.30;;
45650;SDS011;31365;48.858;8.530;2023-02-22T10:19:59;6.43;;;3.20;;
45650;SDS011;31365;48.858;8.530;2023-02-22T10:22:50;5.23;;;3.27;;
45650;SDS011;31365;48.858;8.530;2023-02-22T10:25:37;3.53;;;2.93;;
45650;SDS011;31365;48.858;8.530;2023-02-22T10:28:12;4.23;;;3.33;;
45650;SDS011;31365;48.858;8.530;2023-02-22T10:30:48;6.17;;;3.07;;
45650;SDS011;31365;48.858;8.530;2023-02-22T10:33:23;2.80;;;2.03;;
45650;SDS011;31365;48.858;8.530;2023-02-22T10:36:00;4.23;;;3.00;;
45650;SDS011;31365;48.858;8.530;2023-02-22T10:38:29;3.20;;;2.90;;
45650;SDS011;31365;48.858;8.530;2023-02-22T10:41:02;3.53;;;2.87;;
45650;SDS011;31365;48.858;8.530;2023-02-22T10:43:49;4.33;;;3.37;;
45650;SDS011;31365;48.858;8.530;2023-02-22T10:46:17;3.70;;;3.20;;
45650;SDS011;31365;48.858;8.530;2023-02-22T10:48:50;4.90;;;3.33;;
45650;SDS011;31365;48.858;8.530;2023-02-22T10:51:25;5.00;;;3.63;;
45650;SDS011;31365;48.858;8.530;2023-02-22T10:53:56;5.57;;;3.70;;
45650;SDS011;31365;48.858;8.530;2023-02-22T10:56:46;6.43;;;3.73;;
45650;SDS011;31365;48.858;8.530;2023-02-22T10:59:27;6.67;;;3.50;;
45650;SDS011;31365;48.858;8.530;2023-02-22T11:02:00;4.70;;;3.50;;
45650;SDS011;31365;48.858;8.530;2023-02-22T11:04:46;4.10;;;3.40;;
45650;SDS011;31365;48.858;8.530;2023-02-22T11:07:20;5.83;;;4.00;;
45650;SDS011;31365;48.858;8.530;2023-02-22T11:09:53;4.33;;;3.93;;
45650;SDS011;31365;48.858;8.530;2023-02-22T11:12:28;6.37;;;4.03;;
45650;SDS011;31365;48.858;8.530;2023-02-22T11:15:13;4.70;;;4.20;;
45650;SDS011;31365;48.858;8.530;2023-02-22T11:17:55;8.87;;;3.70;;
45650;SDS011;31365;48.858;8.530;2023-02-22T11:20:27;5.73;;;4.23;;
45650;SDS011;31365;48.858;8.530;2023-02-22T11:23:03;5.97;;;4.20;;
45650;SDS011;31365;48.858;8.530;2023-02-22T11:25:35;5.70;;;4.17;;
45650;SDS011;31365;48.858;8.530;2023-02-22T11:28:08;4.23;;;3.70;;
45650;SDS011;31365;48.858;8.530;2023-02-22T11:30:47;5.88;;;4.00;;
45650;SDS011;31365;48.858;8.530;2023-02-22T11:33:21;8.38;;;4.55;;
45650;SDS011;31365;48.858;8.530;2023-02-22T11:35:56;6.13;;;4.13;;
45650;SDS011;31365;48.858;8.530;2023-02-22T11:38:52;7.00;;;4.40;;
45650;SDS011;31365;48.858;8.530;2023-02-22T11:41:26;6.72;;;4.10;;
